Brookline Village, Massachusetts
Current Conditions -  °F | °C
As of 9:54 PM on Wednesday 26 Nov 2014 (Local Time) from KBOS Reporting Station
Light Snow Light Snow  
Wind Chill: -6°   Ceiling: 600
Heat Index:   Visibility: 2mi
Dew Point:   Wind: 20mph
Humidity: 96%   Direction: 350°N
Pressure: 29.7"   Gusts: 29mph
Location:  42.33°N, 71.12°W
Report Text: KBOS 270254Z 35017G25KT 2SM -SNRA BR BKN006 OVC012 01/00 A2970 RMK AO2 PK WND 01026/0156 SFC VIS 2 1/2 SLP056 P0005 60022 T00060000 56036 $
Loading
Personal Weather Stations






























Interactive Weather Map New forecast layout! Learn more

10-Day Weather Forecast

Advertisements
Track Severe Weather on mobile